Time;durP1;ratioP1;P1;durP2;ratioP2;P2;SDS_P1;SDS_P2;PMS_P1;PMS_P2;Temp;Humidity;BMP_temperature;BMP_pressure;BME280_temperature;BME280_humidity;BME280_pressure;Samples;Min_cycle;Max_cycle;Signal;HPM_P1;HPM_P2
2023/03/22 00:02:29;;;;;;;;;;;10.70;99.90;;;;;;5115768;28;19928;-71
2023/03/22 00:05:09;;;;;;;;;;;10.80;99.90;;;;;;5122033;28;20483;-70
2023/03/22 00:07:43;;;;;;;;;;;10.70;99.90;;;;;;5090009;29;19917;-73
2023/03/22 00:10:20;;;;;;;;;;;10.70;99.90;;;;;;5129788;28;19920;-71
2023/03/22 00:12:51;;;;;;;;;;;10.70;99.90;;;;;;5133133;28;19918;-69
2023/03/22 00:15:30;;;;;;;;;;;10.60;99.90;;;;;;5131885;28;19918;-71
2023/03/22 00:18:04;;;;;;;;;;;10.60;99.90;;;;;;5135698;28;19917;-72
2023/03/22 00:20:39;;;;;;;;;;;10.60;99.90;;;;;;5117180;28;19917;-72
2023/03/22 00:23:10;;;;;;;;;;;10.60;99.90;;;;;;5117320;28;19918;-70
2023/03/22 00:25:43;;;;;;;;;;;10.60;99.90;;;;;;5116319;28;19924;-69
2023/03/22 00:28:15;;;;;;;;;;;10.60;99.90;;;;;;5133652;28;19918;-70
2023/03/22 00:30:56;;;;;;;;;;;10.60;99.90;;;;;;5113465;28;19950;-73
2023/03/22 00:33:31;;;;;;;;;;;10.60;99.90;;;;;;5116865;28;19916;-71
2023/03/22 00:36:06;;;;;;;;;;;10.50;99.90;;;;;;5132478;28;20335;-70
2023/03/22 00:38:38;;;;;;;;;;;10.60;99.90;;;;;;5130831;28;19917;-70
2023/03/22 00:41:25;;;;;;;;;;;10.60;99.90;;;;;;5116121;28;20540;-70
2023/03/22 00:43:59;;;;;;;;;;;10.70;99.90;;;;;;5134506;28;19910;-69
2023/03/22 00:46:30;;;;;;;;;;;10.80;99.90;;;;;;5128934;28;19918;-70
2023/03/22 00:49:01;;;;;;;;;;;10.80;99.90;;;;;;5144726;28;20119;-72
2023/03/22 00:51:35;;;;;;;;;;;11.00;99.90;;;;;;5115684;28;19914;-70
2023/03/22 00:54:07;;;;;;;;;;;11.00;99.90;;;;;;5120762;28;19928;-68
2023/03/22 00:56:44;;;;;;;;;;;11.00;99.90;;;;;;5100069;28;19924;-71
2023/03/22 00:59:15;;;;;;;;;;;11.00;99.90;;;;;;5098364;28;20107;-72
2023/03/22 01:01:49;;;;;;;;;;;11.00;99.90;;;;;;5164517;23;19924;-70
2023/03/22 01:04:27;;;;;;;;;;;10.90;99.90;;;;;;5115167;28;20198;-67
2023/03/22 01:07:06;;;;;;;;;;;10.90;99.90;;;;;;5157405;28;19932;-64
2023/03/22 01:09:37;;;;;;;;;;;11.00;99.90;;;;;;5144623;28;20239;-70
2023/03/22 01:12:10;;;;;;;;;;;11.00;99.90;;;;;;5134889;28;19910;-67
2023/03/22 01:14:41;;;;;;;;;;;11.00;99.90;;;;;;5102456;28;19916;-68
2023/03/22 01:17:15;;;;;;;;;;;11.10;99.90;;;;;;5130919;28;19914;-65
2023/03/22 01:19:51;;;;;;;;;;;11.00;99.90;;;;;;5155638;28;19996;-66
2023/03/22 01:22:23;;;;;;;;;;;11.00;99.90;;;;;;5172783;28;19922;-65
2023/03/22 01:24:54;;;;;;;;;;;11.10;99.90;;;;;;5168713;28;20178;-66
2023/03/22 01:27:28;;;;;;;;;;;11.10;99.90;;;;;;5138945;28;19909;-69
2023/03/22 01:29:59;;;;;;;;;;;11.10;99.90;;;;;;5174276;28;19909;-64
2023/03/22 01:32:30;;;;;;;;;;;11.20;99.90;;;;;;5170417;28;20194;-68
2023/03/22 01:35:02;;;;;;;;;;;11.20;99.90;;;;;;5155593;28;19947;-62
2023/03/22 01:37:37;;;;;;;;;;;11.20;99.90;;;;;;5156466;28;20086;-68
2023/03/22 01:40:12;;;;;;;;;;;11.20;99.90;;;;;;5155034;28;20290;-65
2023/03/22 01:42:46;;;;;;;;;;;11.20;99.90;;;;;;5131670;28;19916;-66
2023/03/22 01:45:37;;;;;;;;;;;11.20;99.90;;;;;;5153689;28;19916;-68
2023/03/22 01:48:13;;;;;;;;;;;11.20;99.90;;;;;;5163513;28;20344;-69
2023/03/22 01:50:54;;;;;;;;;;;11.20;99.90;;;;;;5159513;28;19909;-62
2023/03/22 01:53:26;;;;;;;;;;;11.20;99.90;;;;;;5135562;28;19927;-67
2023/03/22 01:55:57;;;;;;;;;;;11.20;99.90;;;;;;5159523;28;19913;-69
2023/03/22 01:58:33;;;;;;;;;;;11.30;99.90;;;;;;5163413;28;20063;-67
2023/03/22 02:01:05;;;;;;;;;;;11.30;99.90;;;;;;5138108;28;20301;-66
2023/03/22 02:03:55;;;;;;;;;;;11.20;99.90;;;;;;5137754;28;19913;-67
2023/03/22 02:06:31;;;;;;;;;;;11.20;99.90;;;;;;5126877;28;19922;-67
2023/03/22 02:09:10;;;;;;;;;;;11.10;99.90;;;;;;5134105;28;19918;-67
2023/03/22 02:11:56;;;;;;;;;;;11.10;99.90;;;;;;5135656;28;19918;-65
2023/03/22 02:14:56;;;;;;;;;;;11.10;99.90;;;;;;5138727;28;19913;-67
2023/03/22 02:17:50;;;;;;;;;;;11.10;99.90;;;;;;5152525;28;19927;-68
2023/03/22 02:20:40;;;;;;;;;;;11.10;99.90;;;;;;5141912;28;20042;-66
2023/03/22 02:23:27;;;;;;;;;;;11.10;99.90;;;;;;5174209;28;19909;-65
2023/03/22 02:26:10;;;;;;;;;;;11.10;99.90;;;;;;5143091;28;20114;-65
2023/03/22 02:29:03;;;;;;;;;;;11.10;99.90;;;;;;5125133;28;19910;-69
2023/03/22 02:31:51;;;;;;;;;;;11.00;99.90;;;;;;5152828;28;19916;-66
2023/03/22 02:34:50;;;;;;;;;;;11.00;99.90;;;;;;5133812;28;19932;-66
2023/03/22 02:37:51;;;;;;;;;;;10.90;99.90;;;;;;5153803;28;20190;-62
2023/03/22 02:40:32;;;;;;;;;;;10.90;99.90;;;;;;5139980;28;19929;-70
2023/03/22 02:43:37;;;;;;;;;;;10.90;99.90;;;;;;5174939;28;19910;-67
2023/03/22 02:46:11;;;;;;;;;;;11.00;99.90;;;;;;5135948;28;19913;-66
2023/03/22 02:48:55;;;;;;;;;;;11.00;99.90;;;;;;5172923;28;20199;-68
2023/03/22 02:51:39;;;;;;;;;;;11.00;99.90;;;;;;5123001;28;20278;-66
2023/03/22 02:54:23;;;;;;;;;;;11.00;99.90;;;;;;5152088;28;20161;-67
2023/03/22 02:56:59;;;;;;;;;;;11.10;99.90;;;;;;5130615;28;20228;-67
2023/03/22 02:59:37;;;;;;;;;;;11.00;99.90;;;;;;5130776;28;20205;-67
2023/03/22 03:02:12;;;;;;;;;;;11.00;99.90;;;;;;5124611;28;19942;-68
2023/03/22 03:04:50;;;;;;;;;;;11.00;99.90;;;;;;5126962;28;19922;-65
2023/03/22 03:07:23;;;;;;;;;;;10.90;99.90;;;;;;5141528;28;19924;-68
2023/03/22 03:09:55;;;;;;;;;;;10.90;99.90;;;;;;5125503;28;19921;-65
2023/03/22 03:12:29;;;;;;;;;;;10.90;99.90;;;;;;5141707;28;19917;-71
2023/03/22 03:15:00;;;;;;;;;;;10.80;99.90;;;;;;5158650;28;19917;-66
2023/03/22 03:17:46;;;;;;;;;;;10.90;99.90;;;;;;5173768;28;20324;-67
2023/03/22 03:20:53;;;;;;;;;;;10.90;99.90;;;;;;5141290;28;19932;-67
2023/03/22 03:23:48;;;;;;;;;;;10.80;99.90;;;;;;5160502;28;20246;-68
2023/03/22 03:26:43;;;;;;;;;;;10.80;99.90;;;;;;5133454;28;19928;-64
2023/03/22 03:29:41;;;;;;;;;;;10.80;99.90;;;;;;5100682;28;19910;-66
2023/03/22 03:32:25;;;;;;;;;;;10.70;99.90;;;;;;5109209;28;19910;-65
2023/03/22 03:35:04;;;;;;;;;;;10.80;99.90;;;;;;5116029;28;19914;-65
2023/03/22 03:37:43;;;;;;;;;;;10.90;99.90;;;;;;5136450;28;20148;-63
2023/03/22 03:40:21;;;;;;;;;;;10.90;99.90;;;;;;5136384;28;20229;-71
2023/03/22 03:42:57;;;;;;;;;;;11.00;99.90;;;;;;5127517;28;19910;-66
2023/03/22 03:45:28;;;;;;;;;;;11.00;99.90;;;;;;5117035;28;20098;-66
2023/03/22 03:48:05;;;;;;;;;;;11.00;99.90;;;;;;5154905;28;20307;-65
2023/03/22 03:50:36;;;;;;;;;;;11.00;99.90;;;;;;5136528;28;19924;-68
2023/03/22 03:53:10;;;;;;;;;;;11.00;99.90;;;;;;5116270;28;19924;-66
2023/03/22 03:55:45;;;;;;;;;;;11.00;99.90;;;;;;5153323;28;19917;-66
2023/03/22 03:58:18;;;;;;;;;;;11.10;99.90;;;;;;5122585;28;19918;-66
2023/03/22 04:00:50;;;;;;;;;;;11.10;99.90;;;;;;5149379;28;20128;-69
2023/03/22 04:03:23;;;;;;;;;;;11.10;99.90;;;;;;5143861;28;20103;-71
2023/03/22 04:05:54;;;;;;;;;;;11.10;99.90;;;;;;5121979;28;20205;-70
2023/03/22 04:08:26;;;;;;;;;;;11.10;99.90;;;;;;5153107;28;20177;-64
2023/03/22 04:10:59;;;;;;;;;;;11.00;99.90;;;;;;5154259;28;19909;-67
2023/03/22 04:13:33;;;;;;;;;;;10.90;99.90;;;;;;5136117;28;20187;-66
2023/03/22 04:16:04;;;;;;;;;;;11.00;99.90;;;;;;5133328;28;20136;-67
2023/03/22 04:18:39;;;;;;;;;;;11.00;99.90;;;;;;5151468;28;19928;-65
2023/03/22 04:21:15;;;;;;;;;;;11.00;99.90;;;;;;5120268;28;19918;-70
2023/03/22 04:23:47;;;;;;;;;;;11.00;99.90;;;;;;5136105;28;19918;-71
2023/03/22 04:26:19;;;;;;;;;;;11.00;99.90;;;;;;5121969;28;19928;-68
2023/03/22 04:28:57;;;;;;;;;;;11.00;99.90;;;;;;5140348;28;19909;-68
2023/03/22 04:31:32;;;;;;;;;;;10.90;99.90;;;;;;5111230;28;19920;-65
2023/03/22 04:34:04;;;;;;;;;;;10.90;99.90;;;;;;5136259;28;19918;-66
2023/03/22 04:36:38;;;;;;;;;;;10.90;99.90;;;;;;5131524;28;19928;-70
2023/03/22 04:39:10;;;;;;;;;;;11.00;99.90;;;;;;5154041;28;19909;-68
2023/03/22 04:41:42;;;;;;;;;;;10.90;99.90;;;;;;5120581;28;20099;-67
2023/03/22 04:44:18;;;;;;;;;;;11.00;99.90;;;;;;5154072;28;20269;-66
2023/03/22 04:46:49;;;;;;;;;;;10.90;99.90;;;;;;5133545;28;19918;-66
2023/03/22 04:49:25;;;;;;;;;;;11.00;99.90;;;;;;5154312;28;19944;-69
2023/03/22 04:51:56;;;;;;;;;;;11.00;99.90;;;;;;5104014;28;20061;-67
2023/03/22 04:54:28;;;;;;;;;;;11.00;99.90;;;;;;5153862;28;19917;-65
2023/03/22 04:56:59;;;;;;;;;;;10.90;99.90;;;;;;5119190;28;19913;-69
2023/03/22 04:59:31;;;;;;;;;;;10.90;99.90;;;;;;5153170;28;19910;-67
2023/03/22 05:02:04;;;;;;;;;;;11.00;99.90;;;;;;5150416;28;20091;-69
2023/03/22 05:04:36;;;;;;;;;;;11.00;99.90;;;;;;5128830;28;20233;-66
2023/03/22 05:07:10;;;;;;;;;;;11.00;99.90;;;;;;5162198;28;19924;-67
2023/03/22 05:09:42;;;;;;;;;;;11.00;99.90;;;;;;5111299;28;20372;-66
2023/03/22 05:12:14;;;;;;;;;;;11.00;99.90;;;;;;5133911;28;20119;-69
2023/03/22 05:14:47;;;;;;;;;;;11.10;99.90;;;;;;5119354;28;19918;-67
2023/03/22 05:17:21;;;;;;;;;;;11.10;99.90;;;;;;5131547;28;19953;-69
2023/03/22 05:19:55;;;;;;;;;;;11.20;99.90;;;;;;5150357;28;19909;-67
2023/03/22 05:22:27;;;;;;;;;;;11.30;99.90;;;;;;5127940;28;20143;-64
2023/03/22 05:25:01;;;;;;;;;;;11.30;99.90;;;;;;5132042;28;19928;-65
2023/03/22 05:27:37;;;;;;;;;;;11.30;99.90;;;;;;5135374;28;19932;-68
2023/03/22 05:30:15;;;;;;;;;;;11.30;99.90;;;;;;5136395;28;19915;-70
2023/03/22 05:32:48;;;;;;;;;;;11.20;99.90;;;;;;5151596;28;20428;-67
2023/03/22 05:35:25;;;;;;;;;;;11.10;99.90;;;;;;5154691;28;19909;-64
2023/03/22 05:38:00;;;;;;;;;;;11.20;99.90;;;;;;5139087;28;20118;-63
2023/03/22 05:40:39;;;;;;;;;;;11.20;99.90;;;;;;5099116;28;19910;-65
2023/03/22 05:43:14;;;;;;;;;;;11.30;99.90;;;;;;5133646;28;19909;-69
2023/03/22 05:45:50;;;;;;;;;;;11.30;99.90;;;;;;5115254;28;20178;-68
2023/03/22 05:48:23;;;;;;;;;;;11.40;99.90;;;;;;5121242;28;19914;-67
2023/03/22 05:50:55;;;;;;;;;;;11.40;99.90;;;;;;5119677;28;19924;-68
2023/03/22 05:53:32;;;;;;;;;;;11.40;99.90;;;;;;5152073;28;19937;-64
2023/03/22 05:56:08;;;;;;;;;;;11.40;99.90;;;;;;5098163;28;19914;-66
2023/03/22 05:58:43;;;;;;;;;;;11.60;99.90;;;;;;5112559;28;19909;-67
2023/03/22 06:01:15;;;;;;;;;;;11.80;99.90;;;;;;5115262;28;19928;-67
2023/03/22 06:03:47;;;;;;;;;;;12.00;99.90;;;;;;5151975;28;20255;-68
2023/03/22 06:06:22;;;;;;;;;;;12.10;99.90;;;;;;5157087;28;19913;-65
2023/03/22 06:08:56;;;;;;;;;;;12.30;99.90;;;;;;5134960;28;19917;-63
2023/03/22 06:11:29;;;;;;;;;;;12.50;99.90;;;;;;5115579;28;20220;-69
2023/03/22 06:14:00;;;;;;;;;;;12.60;99.90;;;;;;5151055;28;20194;-63
2023/03/22 06:16:34;;;;;;;;;;;12.70;99.90;;;;;;5110684;28;19917;-68
2023/03/22 06:19:06;;;;;;;;;;;12.90;99.90;;;;;;5142815;28;19936;-65
2023/03/22 06:21:37;;;;;;;;;;;13.10;99.90;;;;;;5149479;28;20109;-65
2023/03/22 06:24:11;;;;;;;;;;;13.30;99.90;;;;;;5148238;28;20083;-61
2023/03/22 06:26:46;;;;;;;;;;;13.40;99.90;;;;;;5115228;28;20061;-66
2023/03/22 06:29:20;;;;;;;;;;;13.70;99.90;;;;;;5127294;28;20042;-67
2023/03/22 06:31:56;;;;;;;;;;;14.00;99.90;;;;;;5131688;28;19928;-67
2023/03/22 06:34:33;;;;;;;;;;;14.10;99.90;;;;;;5132300;28;19909;-68
2023/03/22 06:37:08;;;;;;;;;;;14.20;99.90;;;;;;5117892;28;19933;-71
2023/03/22 06:39:42;;;;;;;;;;;14.30;99.90;;;;;;5119653;28;20072;-65
2023/03/22 06:42:13;;;;;;;;;;;14.50;99.90;;;;;;5154166;28;19935;-67
2023/03/22 06:44:50;;;;;;;;;;;14.60;99.90;;;;;;5149914;28;19921;-70
2023/03/22 06:47:25;;;;;;;;;;;14.70;99.90;;;;;;5131883;28;19925;-67
2023/03/22 06:50:04;;;;;;;;;;;14.80;99.90;;;;;;5104400;28;20164;-66
2023/03/22 06:52:35;;;;;;;;;;;14.80;99.90;;;;;;5115764;28;19910;-71
2023/03/22 06:55:09;;;;;;;;;;;14.90;99.90;;;;;;5141973;28;19917;-69
2023/03/22 06:57:40;;;;;;;;;;;15.00;99.90;;;;;;5101388;28;19916;-64
2023/03/22 07:00:12;;;;;;;;;;;15.10;99.90;;;;;;5153095;28;19913;-67
2023/03/22 07:02:46;;;;;;;;;;;15.10;99.90;;;;;;5108980;28;19929;-67
2023/03/22 07:05:23;;;;;;;;;;;15.20;99.90;;;;;;5135198;28;19925;-68
2023/03/22 07:07:55;;;;;;;;;;;15.20;99.90;;;;;;5105084;28;20221;-65
2023/03/22 07:10:30;;;;;;;;;;;15.20;99.90;;;;;;5152492;28;20127;-67
2023/03/22 07:13:02;;;;;;;;;;;15.30;99.90;;;;;;5131542;28;19921;-71
2023/03/22 07:15:33;;;;;;;;;;;15.50;99.90;;;;;;5118679;28;19948;-67
2023/03/22 07:18:07;;;;;;;;;;;15.70;99.90;;;;;;5153722;28;20121;-68
2023/03/22 07:20:44;;;;;;;;;;;15.90;99.90;;;;;;5168294;28;19924;-67
2023/03/22 07:23:20;;;;;;;;;;;16.00;99.90;;;;;;5117791;28;19925;-65
2023/03/22 07:25:54;;;;;;;;;;;15.90;99.90;;;;;;5118135;28;19920;-69
2023/03/22 07:28:27;;;;;;;;;;;16.10;99.90;;;;;;5145751;28;19920;-65
2023/03/22 07:31:04;;;;;;;;;;;16.30;99.90;;;;;;5145909;28;19914;-62
2023/03/22 07:33:38;;;;;;;;;;;16.40;99.90;;;;;;5148130;28;19910;-65
2023/03/22 07:36:12;;;;;;;;;;;16.70;99.90;;;;;;5156731;28;19918;-65
2023/03/22 07:38:45;;;;;;;;;;;17.00;99.90;;;;;;5096461;28;20140;-69
2023/03/22 07:41:17;;;;;;;;;;;17.20;99.90;;;;;;5146297;28;19930;-69
2023/03/22 07:43:51;;;;;;;;;;;17.40;99.90;;;;;;5133208;28;19909;-68
2023/03/22 07:46:25;;;;;;;;;;;17.60;99.90;;;;;;5138973;28;19914;-66
2023/03/22 07:48:58;;;;;;;;;;;17.70;99.90;;;;;;5150253;28;19920;-65
2023/03/22 07:51:30;;;;;;;;;;;18.00;99.90;;;;;;5148802;28;19914;-67
2023/03/22 07:54:04;;;;;;;;;;;18.60;99.90;;;;;;5150849;28;20126;-68
2023/03/22 07:56:35;;;;;;;;;;;18.90;99.90;;;;;;5115638;28;20355;-63
2023/03/22 07:59:12;;;;;;;;;;;19.50;99.90;;;;;;5132338;28;20224;-65
2023/03/22 08:01:46;;;;;;;;;;;20.20;99.90;;;;;;5128493;28;20284;-67
2023/03/22 08:04:18;;;;;;;;;;;20.40;99.90;;;;;;5107305;28;19917;-66
2023/03/22 08:06:57;;;;;;;;;;;20.70;99.90;;;;;;5133089;28;19910;-67
2023/03/22 08:09:34;;;;;;;;;;;20.80;99.90;;;;;;5137481;28;19918;-66
2023/03/22 08:12:10;;;;;;;;;;;20.10;99.90;;;;;;5131136;28;19940;-64
2023/03/22 08:14:49;;;;;;;;;;;19.80;99.90;;;;;;5116028;28;20243;-68
2023/03/22 08:17:24;;;;;;;;;;;19.80;99.90;;;;;;5112912;28;19928;-68
2023/03/22 08:19:57;;;;;;;;;;;19.30;99.90;;;;;;5115653;28;20066;-67
2023/03/22 08:22:34;;;;;;;;;;;19.20;99.90;;;;;;5105542;28;19933;-62
2023/03/22 08:25:13;;;;;;;;;;;18.50;99.90;;;;;;5128817;28;19918;-66
2023/03/22 08:27:50;;;;;;;;;;;18.20;99.90;;;;;;5128307;28;20503;-67
2023/03/22 08:30:23;;;;;;;;;;;18.20;99.90;;;;;;5112708;28;19918;-69
2023/03/22 08:32:58;;;;;;;;;;;18.00;99.90;;;;;;5130912;28;20064;-65
2023/03/22 08:35:30;;;;;;;;;;;18.00;99.90;;;;;;5114227;28;19928;-69
2023/03/22 08:38:01;;;;;;;;;;;18.00;99.90;;;;;;5165774;28;20009;-65
2023/03/22 08:40:35;;;;;;;;;;;17.80;99.90;;;;;;5149485;28;20364;-65
2023/03/22 08:43:08;;;;;;;;;;;17.50;99.90;;;;;;5136086;28;20110;-65
2023/03/22 08:45:46;;;;;;;;;;;17.80;99.90;;;;;;5113790;28;19909;-69
2023/03/22 08:48:17;;;;;;;;;;;18.00;99.90;;;;;;5134300;28;19910;-67
2023/03/22 08:50:48;;;;;;;;;;;18.10;99.90;;;;;;5149575;28;19916;-66
2023/03/22 08:53:22;;;;;;;;;;;18.00;99.90;;;;;;5132946;28;20106;-68
2023/03/22 08:55:56;;;;;;;;;;;17.80;99.90;;;;;;5116218;28;19925;-62
2023/03/22 08:58:28;;;;;;;;;;;17.70;99.90;;;;;;5147915;28;19928;-66
2023/03/22 09:00:59;;;;;;;;;;;17.90;99.90;;;;;;5098939;28;20172;-67
2023/03/22 09:03:30;;;;;;;;;;;18.70;99.90;;;;;;5143842;28;19921;-64
2023/03/22 09:06:02;;;;;;;;;;;19.30;99.90;;;;;;5144637;28;20194;-67
2023/03/22 09:08:33;;;;;;;;;;;19.60;99.90;;;;;;5139500;28;19909;-66
2023/03/22 09:11:09;;;;;;;;;;;19.90;99.90;;;;;;5147832;28;19924;-64
2023/03/22 09:13:41;;;;;;;;;;;19.90;99.90;;;;;;5100365;28;19918;-64
2023/03/22 09:16:12;;;;;;;;;;;20.00;99.90;;;;;;5146616;28;19917;-65
2023/03/22 09:18:46;;;;;;;;;;;20.50;99.90;;;;;;5150381;28;19916;-65
2023/03/22 09:21:17;;;;;;;;;;;20.30;99.90;;;;;;5116228;28;19917;-67
2023/03/22 09:23:49;;;;;;;;;;;20.90;99.90;;;;;;5133359;28;19989;-62
2023/03/22 09:26:24;;;;;;;;;;;21.10;99.90;;;;;;5115250;28;19921;-67
2023/03/22 09:28:55;;;;;;;;;;;20.40;99.90;;;;;;5099598;28;20183;-66
2023/03/22 09:31:26;;;;;;;;;;;19.90;99.90;;;;;;5143201;28;20191;-66
2023/03/22 09:34:05;;;;;;;;;;;19.80;99.90;;;;;;5131101;28;20360;-63
2023/03/22 09:36:37;;;;;;;;;;;20.20;99.90;;;;;;5132147;28;20229;-65
2023/03/22 09:39:11;;;;;;;;;;;20.40;99.90;;;;;;5116293;28;20224;-67
2023/03/22 09:41:55;;;;;;;;;;;21.10;99.90;;;;;;5143943;28;19910;-67
2023/03/22 09:44:31;;;;;;;;;;;21.10;99.90;;;;;;5132724;28;19916;-66
2023/03/22 09:47:04;;;;;;;;;;;20.70;99.90;;;;;;5099849;28;20272;-69
2023/03/22 09:49:41;;;;;;;;;;;20.90;99.90;;;;;;5116138;28;19918;-69
2023/03/22 09:52:15;;;;;;;;;;;21.30;99.90;;;;;;5132779;28;20119;-66
2023/03/22 09:54:49;;;;;;;;;;;21.40;99.90;;;;;;5116727;28;19916;-64
2023/03/22 09:57:41;;;;;;;;;;;21.80;99.90;;;;;;5099488;28;19929;-67
2023/03/22 10:00:23;;;;;;;;;;;22.20;99.90;;;;;;5111428;28;19937;-64
2023/03/22 10:03:20;;;;;;;;;;;22.80;99.90;;;;;;5117200;28;20264;-64
2023/03/22 10:06:07;;;;;;;;;;;22.50;1.00;;;;;;5106711;28;19969;-68
2023/03/22 10:09:04;;;;;;;;;;;22.30;1.00;;;;;;5102484;28;20159;-68
2023/03/22 10:11:49;;;;;;;;;;;22.80;1.00;;;;;;5153221;28;19922;-66
2023/03/22 10:14:35;;;;;;;;;;;23.70;1.00;;;;;;5121614;28;20136;-67
2023/03/22 10:17:17;;;;;;;;;;;24.50;1.00;;;;;;5132657;28;20206;-67
2023/03/22 10:20:11;;;;;;;;;;;24.50;1.00;;;;;;5136150;28;19910;-65
2023/03/22 10:22:43;;;;;;;;;;;24.80;1.00;;;;;;5146683;28;19917;-66
2023/03/22 10:25:25;;;;;;;;;;;25.20;1.00;;;;;;5135794;28;20093;-68
2023/03/22 10:27:57;;;;;;;;;;;24.20;1.00;;;;;;5119647;28;20208;-72
2023/03/22 10:30:35;;;;;;;;;;;22.50;1.00;;;;;;5133118;28;19922;-64
2023/03/22 10:33:49;;;;;;;;;;;22.40;1.00;;;;;;5136373;28;19931;-65
2023/03/22 10:36:22;;;;;;;;;;;22.90;1.00;;;;;;5052042;29;20171;-65
2023/03/22 10:39:02;;;;;;;;;;;23.40;1.00;;;;;;5035230;29;19919;-66
2023/03/22 10:41:34;;;;;;;;;;;23.70;1.00;;;;;;5055966;29;19911;-63
2023/03/22 10:44:06;;;;;;;;;;;24.00;1.00;;;;;;5071318;29;20124;-66
2023/03/22 10:46:40;;;;;;;;;;;24.30;1.00;;;;;;5038773;29;20172;-64
2023/03/22 10:49:21;;;;;;;;;;;25.10;1.00;;;;;;5068057;29;19919;-66
2023/03/22 10:52:11;;;;;;;;;;;26.50;1.00;;;;;;5065875;29;19919;-63
2023/03/22 10:54:42;;;;;;;;;;;27.00;1.00;;;;;;5036499;29;20347;-65
2023/03/22 10:57:14;;;;;;;;;;;26.10;1.00;;;;;;5051075;29;19946;-63
2023/03/22 10:59:48;;;;;;;;;;;25.90;1.00;;;;;;5050165;29;19930;-64
2023/03/22 11:02:25;;;;;;;;;;;24.50;1.00;;;;;;5030624;29;19926;-66
2023/03/22 11:05:03;;;;;;;;;;;24.60;99.90;;;;;;5037162;29;19927;-67
2023/03/22 11:07:42;;;;;;;;;;;23.90;99.90;;;;;;5019843;29;19920;-70
2023/03/22 11:10:31;;;;;;;;;;;24.30;99.90;;;;;;5020822;29;19911;-68
2023/03/22 11:13:06;;;;;;;;;;;23.10;99.90;;;;;;5071197;28;19922;-67
2023/03/22 11:15:51;;;;;;;;;;;23.90;99.90;;;;;;5123439;28;19990;-68
2023/03/22 11:18:24;;;;;;;;;;;25.60;99.90;;;;;;5119001;28;20237;-67
2023/03/22 11:21:06;;;;;;;;;;;26.20;99.90;;;;;;5098686;28;19918;-65
2023/03/22 11:23:40;;;;;;;;;;;27.40;99.90;;;;;;5128075;28;19920;-64
2023/03/22 11:26:28;;;;;;;;;;;29.40;99.90;;;;;;5129267;28;19932;-68
2023/03/22 11:29:12;;;;;;;;;;;30.90;1.00;;;;;;5114814;28;20402;-66
2023/03/22 11:31:53;;;;;;;;;;;31.50;1.00;;;;;;5110121;28;19929;-63
2023/03/22 11:34:27;;;;;;;;;;;31.10;99.90;;;;;;5114431;28;19918;-67
2023/03/22 11:37:06;;;;;;;;;;;30.50;1.00;;;;;;5098371;28;19918;-67
2023/03/22 11:39:45;;;;;;;;;;;30.90;99.90;;;;;;5130383;28;20114;-64
2023/03/22 11:42:20;;;;;;;;;;;29.00;99.90;;;;;;5096291;29;19918;-67
2023/03/22 11:44:54;;;;;;;;;;;29.20;99.90;;;;;;5079432;28;20188;-66
2023/03/22 11:47:30;;;;;;;;;;;30.10;99.90;;;;;;5106999;28;20180;-63
2023/03/22 11:50:06;;;;;;;;;;;28.80;99.90;;;;;;5113681;28;19914;-65
2023/03/22 11:52:42;;;;;;;;;;;29.30;99.90;;;;;;5087651;28;19925;-64
2023/03/22 11:55:16;;;;;;;;;;;29.80;99.90;;;;;;5098033;28;19918;-66
2023/03/22 11:57:50;;;;;;;;;;;30.10;99.90;;;;;;5096171;28;20182;-66
2023/03/22 12:00:25;;;;;;;;;;;30.10;99.90;;;;;;5094529;28;19922;-66
2023/03/22 12:03:04;;;;;;;;;;;29.90;99.90;;;;;;5096720;28;20508;-66
2023/03/22 12:05:38;;;;;;;;;;;29.10;99.90;;;;;;5135617;28;19939;-68
2023/03/22 12:08:39;;;;;;;;;;;27.20;99.90;;;;;;5127913;28;19910;-69
2023/03/22 12:11:18;;;;;;;;;;;26.50;99.90;;;;;;5132369;28;19910;-69
2023/03/22 12:14:15;;;;;;;;;;;28.20;99.90;;;;;;5136165;28;19918;-65
2023/03/22 12:16:57;;;;;;;;;;;29.10;99.90;;;;;;5149300;28;20093;-69
2023/03/22 12:19:49;;;;;;;;;;;29.20;99.90;;;;;;5102152;28;19917;-65
2023/03/22 12:22:28;;;;;;;;;;;28.00;99.90;;;;;;5116581;28;19921;-66
2023/03/22 12:25:12;;;;;;;;;;;28.10;99.90;;;;;;5129570;28;20260;-62
2023/03/22 12:27:51;;;;;;;;;;;28.30;99.90;;;;;;5096930;28;19913;-68
2023/03/22 12:30:24;;;;;;;;;;;28.30;99.90;;;;;;5110625;28;20072;-64
2023/03/22 12:33:13;;;;;;;;;;;26.70;99.90;;;;;;5096173;28;19921;-65
2023/03/22 12:35:45;;;;;;;;;;;25.40;99.90;;;;;;5132115;28;19918;-65
2023/03/22 12:38:23;;;;;;;;;;;26.80;99.90;;;;;;5133569;28;19914;-69
2023/03/22 12:41:02;;;;;;;;;;;29.20;99.90;;;;;;5117337;28;20203;-68
2023/03/22 12:43:52;;;;;;;;;;;30.60;99.90;;;;;;5149470;28;20247;-67
2023/03/22 12:46:30;;;;;;;;;;;31.70;99.90;;;;;;5141136;28;19924;-70
2023/03/22 12:49:18;;;;;;;;;;;32.80;99.90;;;;;;5132632;28;19921;-67
2023/03/22 12:51:51;;;;;;;;;;;31.40;99.90;;;;;;5124925;28;19928;-64
2023/03/22 12:54:26;;;;;;;;;;;31.60;99.90;;;;;;5125434;28;20234;-65
2023/03/22 12:56:57;;;;;;;;;;;32.50;99.90;;;;;;5131791;28;20039;-67
2023/03/22 12:59:30;;;;;;;;;;;31.90;99.90;;;;;;5121963;28;19921;-67
2023/03/22 13:02:22;;;;;;;;;;;30.00;99.90;;;;;;5110060;28;19953;-67
2023/03/22 13:04:56;;;;;;;;;;;28.60;99.90;;;;;;5118366;28;20017;-66
2023/03/22 13:07:30;;;;;;;;;;;27.20;90.50;;;;;;5137961;28;19909;-68
2023/03/22 13:10:31;;;;;;;;;;;25.40;1.00;;;;;;5127426;28;19922;-69
2023/03/22 13:13:20;;;;;;;;;;;24.50;1.00;;;;;;5116326;28;20201;-69
2023/03/22 13:16:12;;;;;;;;;;;23.40;1.00;;;;;;5126704;28;19917;-67
2023/03/22 13:18:45;;;;;;;;;;;22.50;1.00;;;;;;5135352;28;20241;-62
2023/03/22 13:21:18;;;;;;;;;;;23.80;1.00;;;;;;5149326;28;19917;-67
2023/03/22 13:24:04;;;;;;;;;;;25.50;1.00;;;;;;5114619;28;20899;-66
2023/03/22 13:26:36;;;;;;;;;;;26.10;45.20;;;;;;5131947;28;19928;-69
2023/03/22 13:29:17;;;;;;;;;;;25.50;1.00;;;;;;5121422;28;19918;-68
2023/03/22 13:31:57;;;;;;;;;;;24.50;1.00;;;;;;5140063;28;19918;-72
2023/03/22 13:34:31;;;;;;;;;;;23.80;1.00;;;;;;5116329;28;20102;-66
2023/03/22 13:37:04;;;;;;;;;;;23.20;1.00;;;;;;5152851;28;20156;-65
2023/03/22 13:39:38;;;;;;;;;;;22.90;1.00;;;;;;5120877;28;19984;-73
2023/03/22 13:42:19;;;;;;;;;;;22.80;1.00;;;;;;5148025;28;19928;-70
2023/03/22 13:45:02;;;;;;;;;;;23.20;1.00;;;;;;5153731;28;19910;-70
2023/03/22 13:47:45;;;;;;;;;;;23.60;1.00;;;;;;5133653;28;20127;-71
2023/03/22 13:50:27;;;;;;;;;;;23.60;1.00;;;;;;5119368;28;20209;-60
2023/03/22 13:53:03;;;;;;;;;;;23.30;1.00;;;;;;5104847;28;19924;-70
2023/03/22 13:55:57;;;;;;;;;;;23.00;1.00;;;;;;5132881;28;19917;-70
2023/03/22 13:58:57;;;;;;;;;;;22.40;1.00;;;;;;5120270;28;19925;-70
2023/03/22 14:01:33;;;;;;;;;;;22.10;1.00;;;;;;5132240;28;19913;-66
2023/03/22 14:04:11;;;;;;;;;;;21.90;1.00;;;;;;5136869;28;19916;-68
2023/03/22 14:06:58;;;;;;;;;;;22.10;1.00;;;;;;5130569;28;19913;-68
2023/03/22 14:09:38;;;;;;;;;;;22.20;1.00;;;;;;5126549;28;19917;-61
2023/03/22 14:12:17;;;;;;;;;;;22.20;99.90;;;;;;5115827;28;19918;-65
2023/03/22 14:14:56;;;;;;;;;;;22.40;99.90;;;;;;5115888;28;20302;-69
2023/03/22 14:17:34;;;;;;;;;;;22.60;99.90;;;;;;5117489;28;19914;-66
2023/03/22 14:20:09;;;;;;;;;;;23.00;99.90;;;;;;5135253;28;20091;-66
2023/03/22 14:22:46;;;;;;;;;;;23.40;99.90;;;;;;5153398;28;20079;-67
2023/03/22 14:25:24;;;;;;;;;;;23.00;99.90;;;;;;5119697;28;20268;-64
2023/03/22 14:28:00;;;;;;;;;;;22.90;99.90;;;;;;5120503;28;19923;-68
2023/03/22 14:30:32;;;;;;;;;;;23.10;1.00;;;;;;5135453;28;19910;-72
2023/03/22 14:33:18;;;;;;;;;;;22.70;1.00;;;;;;5135975;28;19918;-68
2023/03/22 14:36:01;;;;;;;;;;;22.60;99.90;;;;;;5135586;28;19916;-72
2023/03/22 14:38:38;;;;;;;;;;;22.60;99.90;;;;;;5103810;28;19917;-67
2023/03/22 14:41:23;;;;;;;;;;;22.00;99.90;;;;;;5138501;28;19917;-74
2023/03/22 14:44:00;;;;;;;;;;;21.80;99.90;;;;;;5153180;28;19933;-71
2023/03/22 14:46:37;;;;;;;;;;;21.70;99.90;;;;;;5108200;28;19916;-68
2023/03/22 14:49:15;;;;;;;;;;;21.80;99.90;;;;;;5134505;28;19936;-67
2023/03/22 14:51:49;;;;;;;;;;;22.00;99.90;;;;;;5119750;28;20299;-65
2023/03/22 14:54:25;;;;;;;;;;;22.40;99.90;;;;;;5122790;28;19921;-71
2023/03/22 14:57:00;;;;;;;;;;;22.80;99.90;;;;;;5123220;28;20140;-69
2023/03/22 14:59:31;;;;;;;;;;;22.70;99.90;;;;;;5151867;28;20074;-67
2023/03/22 15:02:42;;;;;;;;;;;22.20;99.90;;;;;;5135890;28;19913;-71
2023/03/22 15:05:17;;;;;;;;;;;21.90;99.90;;;;;;5107471;28;20451;-67
2023/03/22 15:08:08;;;;;;;;;;;21.70;99.90;;;;;;5120576;28;19924;-67
2023/03/22 15:10:39;;;;;;;;;;;21.90;99.90;;;;;;5135336;28;19914;-68
2023/03/22 15:13:14;;;;;;;;;;;22.40;99.90;;;;;;5135663;28;20562;-70
2023/03/22 15:15:45;;;;;;;;;;;22.60;99.90;;;;;;5132854;28;19916;-67
2023/03/22 15:18:21;;;;;;;;;;;22.80;99.90;;;;;;5152512;28;19909;-70